createdAt,value
2019-05-16T00:08:34.962Z,44.73
2019-05-16T00:18:40.365Z,44.43
2019-05-16T00:28:48.299Z,49.43
2019-05-16T00:38:52.831Z,42.10
2019-05-16T00:48:58.928Z,53.13
2019-05-16T00:59:07.907Z,54.97
2019-05-16T01:09:13.594Z,49.97
2019-05-16T01:19:19.096Z,52.10
2019-05-16T01:29:24.510Z,57.50
2019-05-16T01:39:29.954Z,70.53
2019-05-16T01:49:35.433Z,66.87
2019-05-16T01:59:40.954Z,80.57
2019-05-16T02:09:47.696Z,85.60
2019-05-16T02:19:54.313Z,57.67
2019-05-16T02:30:00.037Z,61.43
2019-05-16T02:40:11.621Z,61.00
2019-05-16T02:50:15.717Z,78.57
2019-05-16T03:00:30.917Z,65.40
2019-05-16T03:10:41.276Z,71.90
2019-05-16T03:20:50.996Z,85.20
2019-05-16T03:30:55.772Z,61.70
2019-05-16T03:41:01.282Z,57.23
2019-05-16T03:51:06.791Z,65.30
2019-05-16T04:01:13.207Z,66.23
2019-05-16T04:11:23.086Z,67.17
2019-05-16T04:21:31.889Z,64.33
2019-05-16T04:31:35.032Z,51.23
2019-05-16T04:41:41.564Z,93.20
2019-05-16T04:51:47.949Z,58.00
2019-05-16T05:01:53.430Z,67.47
2019-05-16T05:12:04.143Z,90.00
2019-05-16T05:22:10.354Z,65.10
2019-05-16T05:32:15.275Z,87.27
2019-05-16T05:42:20.684Z,63.20
2019-05-16T05:52:26.114Z,90.53
2019-05-16T06:02:31.514Z,77.33
2019-05-16T06:12:37.101Z,65.67
2019-05-16T06:22:42.636Z,80.77
2019-05-16T06:32:50.023Z,71.43
2019-05-16T06:42:55.196Z,77.17
2019-05-16T06:53:01.033Z,68.07
2019-05-16T07:03:09.349Z,50.60
2019-05-16T07:13:13.595Z,59.53
2019-05-16T07:23:21.004Z,38.40
2019-05-16T07:33:26.058Z,37.47
2019-05-16T07:43:31.472Z,29.80
2019-05-16T07:53:36.920Z,32.47
2019-05-16T08:03:44.126Z,39.43
2019-05-16T08:13:50.766Z,34.50
2019-05-16T08:23:57.624Z,45.30
2019-05-16T08:34:03.107Z,44.23
2019-05-16T08:44:12.181Z,38.23
2019-05-16T08:54:15.702Z,38.70
2019-05-16T09:04:24.606Z,29.93
2019-05-16T09:14:33.964Z,44.97
2019-05-16T09:24:37.763Z,32.77
2019-05-16T09:34:44.154Z,38.70
2019-05-16T09:44:49.582Z,36.83
2019-05-16T09:54:57.509Z,38.50
2019-05-16T10:05:03.200Z,37.50
2019-05-16T10:15:09.348Z,43.83
2019-05-16T10:25:19.012Z,42.97
2019-05-16T10:35:23.181Z,46.40
2019-05-16T10:45:28.671Z,63.13
2019-05-16T10:55:36.737Z,54.57
2019-05-16T11:05:41.154Z,49.80
2019-05-16T11:15:47.674Z,65.27
2019-05-16T11:25:55.315Z,56.33
2019-05-16T11:36:00.162Z,56.03
2019-05-16T11:46:05.750Z,66.83
2019-05-16T11:56:11.330Z,63.23
2019-05-16T12:06:17.221Z,57.50
2019-05-16T12:16:22.745Z,56.90
2019-05-16T12:26:28.481Z,46.40
2019-05-16T12:36:33.920Z,42.77
2019-05-16T12:46:38.952Z,41.33
2019-05-16T12:56:44.356Z,40.20
2019-05-16T13:06:50.643Z,43.13
2019-05-16T13:16:56.079Z,41.77
2019-05-16T13:27:01.508Z,49.37
2019-05-16T13:37:07.960Z,41.67
2019-05-16T13:47:13.354Z,42.40
2019-05-16T13:57:18.841Z,41.03
2019-05-16T14:07:24.359Z,46.23
2019-05-16T14:17:29.794Z,54.93
2019-05-16T14:27:37.837Z,45.07
2019-05-16T14:37:42.305Z,42.63
2019-05-16T14:47:48.440Z,35.53
2019-05-16T14:57:53.874Z,82.33
2019-05-16T15:07:59.321Z,67.83
2019-05-16T15:18:07.768Z,62.17
2019-05-16T15:28:11.953Z,45.97
2019-05-16T15:38:17.405Z,44.97
2019-05-16T15:48:22.885Z,51.67
2019-05-16T15:58:28.325Z,70.83
2019-05-16T16:08:33.754Z,82.37
2019-05-16T16:18:39.157Z,81.47
2019-05-16T16:28:44.625Z,77.07
2019-05-16T16:38:50.110Z,73.70
2019-05-16T16:48:56.880Z,93.03
2019-05-16T16:59:02.634Z,91.57
2019-05-16T17:09:08.480Z,71.33
2019-05-16T17:19:14.002Z,70.20
2019-05-16T17:29:19.474Z,72.10
2019-05-16T17:39:27.351Z,75.77
2019-05-16T17:49:32.235Z,76.77
2019-05-16T17:59:38.097Z,83.53
2019-05-16T18:09:43.773Z,78.23
2019-05-16T18:19:49.275Z,93.83
2019-05-16T18:29:54.955Z,101.90
2019-05-16T18:40:00.595Z,91.10
2019-05-16T18:50:07.757Z,84.20
2019-05-16T19:00:14.114Z,86.03
2019-05-16T19:10:19.915Z,76.20
2019-05-16T19:20:26.374Z,71.50
2019-05-16T19:30:32.151Z,71.03
2019-05-16T19:40:40.598Z,75.67
2019-05-16T19:50:46.415Z,57.87
2019-05-16T20:00:51.684Z,63.70
2019-05-16T20:10:57.322Z,56.43
2019-05-16T20:21:02.918Z,46.87
2019-05-16T20:31:08.382Z,50.27
2019-05-16T20:41:13.834Z,55.83
2019-05-16T20:51:20.297Z,52.20
2019-05-16T21:01:26.583Z,52.53
2019-05-16T21:11:32.294Z,52.13
2019-05-16T21:21:37.753Z,54.30
2019-05-16T21:31:43.194Z,51.07
2019-05-16T21:41:48.662Z,58.17
2019-05-16T21:51:54.121Z,49.90
2019-05-16T22:01:59.573Z,58.80
2019-05-16T22:12:06.741Z,51.50
2019-05-16T22:22:12.317Z,49.13
2019-05-16T22:32:17.749Z,45.30
2019-05-16T22:42:23.283Z,45.00
2019-05-16T22:52:28.922Z,51.17
2019-05-16T23:02:34.305Z,46.43
2019-05-16T23:12:39.754Z,47.27
2019-05-16T23:22:46.972Z,56.77
2019-05-16T23:32:52.434Z,62.80
2019-05-16T23:42:57.922Z,57.93
2019-05-16T23:53:03.466Z,58.93
